createdAt,value
2022-08-20T00:01:05.429Z,101672.03
2022-08-20T00:03:44.859Z,101665.19
2022-08-20T00:06:23.017Z,101671.50
2022-08-20T00:08:50.080Z,101671.66
2022-08-20T00:11:21.196Z,101671.69
2022-08-20T00:13:52.231Z,101672.72
2022-08-20T00:16:21.230Z,101668.38
2022-08-20T00:18:48.181Z,101665.97
2022-08-20T00:21:19.308Z,101666.91
2022-08-20T00:23:48.499Z,101663.53
2022-08-20T00:26:15.986Z,101662.84
2022-08-20T00:28:42.712Z,101657.78
2022-08-20T00:31:13.140Z,101665.66
2022-08-20T00:33:40.260Z,101660.56
2022-08-20T00:36:10.268Z,101651.94
2022-08-20T00:38:38.460Z,101654.63
2022-08-20T00:41:06.387Z,101660.84
2022-08-20T00:43:35.507Z,101646.25
2022-08-20T00:46:06.752Z,101657.50
2022-08-20T00:48:36.557Z,101654.13
2022-08-20T00:51:18.213Z,101655.94
2022-08-20T00:53:45.347Z,101660.50
2022-08-20T00:56:12.963Z,101663.03
2022-08-20T00:58:42.289Z,101652.78
2022-08-20T01:01:09.689Z,101652.84
2022-08-20T01:03:36.464Z,101632.22
2022-08-20T01:06:03.499Z,101654.72
2022-08-20T01:08:30.042Z,101665.25
2022-08-20T01:11:15.148Z,101660.09
2022-08-20T01:13:42.310Z,101663.66
2022-08-20T01:16:31.430Z,101670.69
2022-08-20T01:19:01.096Z,101665.53
2022-08-20T01:21:28.461Z,101652.75
2022-08-20T01:24:13.779Z,101663.13
2022-08-20T01:26:44.403Z,101671.00
2022-08-20T01:29:16.006Z,101671.09
2022-08-20T01:31:43.154Z,101673.75
2022-08-20T01:34:19.660Z,101668.63
2022-08-20T01:36:51.029Z,101670.44
2022-08-20T01:39:24.851Z,101681.75
2022-08-20T01:42:00.769Z,101676.59
2022-08-20T01:44:28.036Z,101667.97
2022-08-20T01:46:58.607Z,101666.28
2022-08-20T01:49:30.854Z,101666.38
2022-08-20T01:52:00.879Z,101664.69
2022-08-20T01:54:28.332Z,101670.78
2022-08-20T01:56:58.690Z,101680.34
2022-08-20T01:59:25.481Z,101675.19
2022-08-20T02:01:52.610Z,101677.00
2022-08-20T02:04:19.766Z,101678.78
2022-08-20T02:06:57.299Z,101682.38
2022-08-20T02:09:35.045Z,101677.16
2022-08-20T02:12:03.419Z,101677.25
2022-08-20T02:14:30.332Z,101673.78
2022-08-20T02:16:58.490Z,101670.31
2022-08-20T02:19:33.258Z,101679.88
2022-08-20T02:22:03.371Z,101678.16
2022-08-20T02:24:30.073Z,101678.19
2022-08-20T02:26:56.811Z,101672.13
2022-08-20T02:29:23.908Z,101665.25
2022-08-20T02:32:24.872Z,101670.50
2022-08-20T02:34:37.004Z,101675.69
2022-08-20T02:37:06.026Z,101678.34
2022-08-20T02:39:33.366Z,101671.41
2022-08-20T02:42:02.813Z,101674.03
2022-08-20T02:44:30.137Z,101680.13
2022-08-20T02:46:56.942Z,101650.81
2022-08-20T02:49:23.443Z,101646.38
2022-08-20T02:51:49.952Z,101660.19
2022-08-20T02:54:17.269Z,101672.28
2022-08-20T02:56:44.371Z,101670.50
2022-08-20T02:59:10.949Z,101668.81
2022-08-20T03:01:45.657Z,101667.09
2022-08-20T03:04:12.178Z,101673.16
2022-08-20T03:06:38.702Z,101669.69
2022-08-20T03:09:06.137Z,101662.78
2022-08-20T03:11:32.959Z,101666.19
2022-08-20T03:14:00.688Z,101667.09
2022-08-20T03:16:27.451Z,101646.38
2022-08-20T03:18:55.297Z,101666.31
2022-08-20T03:21:21.902Z,101676.78
2022-08-20T03:23:48.452Z,101667.19
2022-08-20T03:26:16.506Z,101667.28
2022-08-20T03:28:43.776Z,101662.00
2022-08-20T03:31:10.675Z,101655.91
2022-08-20T03:33:39.585Z,101653.41
2022-08-20T03:36:22.049Z,101660.34
2022-08-20T03:38:55.408Z,101640.50
2022-08-20T03:41:22.009Z,101660.31
2022-08-20T03:43:48.521Z,101653.47
2022-08-20T03:46:22.246Z,101649.97
2022-08-20T03:48:56.713Z,101664.69
2022-08-20T03:51:26.959Z,101661.19
2022-08-20T03:53:53.550Z,101661.22
2022-08-20T03:56:20.034Z,101667.31
2022-08-20T03:58:46.650Z,101659.53
2022-08-20T04:01:37.141Z,101638.00
2022-08-20T04:04:00.757Z,101663.88
2022-08-20T04:06:29.206Z,101656.94
2022-08-20T04:08:56.959Z,101660.44
2022-08-20T04:11:24.276Z,101661.31
2022-08-20T04:13:51.095Z,101657.81
2022-08-20T04:16:19.458Z,101654.41
2022-08-20T04:18:58.625Z,101659.59
2022-08-20T04:21:32.522Z,101649.28
2022-08-20T04:24:00.608Z,101658.81
2022-08-20T04:26:27.168Z,101656.34
2022-08-20T04:28:55.907Z,101660.63
2022-08-20T04:31:33.484Z,101667.63
2022-08-20T04:34:01.951Z,101665.03
2022-08-20T04:36:28.525Z,101659.13
2022-08-20T04:38:55.361Z,101661.63
2022-08-20T04:41:24.290Z,101676.34
2022-08-20T04:43:54.525Z,101674.63
2022-08-20T04:46:25.455Z,101657.44
2022-08-20T04:48:52.169Z,101675.56
2022-08-20T04:51:19.418Z,101664.28
2022-08-20T04:53:52.209Z,101663.59
2022-08-20T04:56:23.929Z,101681.72
2022-08-20T04:58:52.428Z,101679.97
2022-08-20T05:01:19.115Z,101681.72
2022-08-20T05:03:47.814Z,101676.53
2022-08-20T05:06:16.258Z,101680.84
2022-08-20T05:08:44.103Z,101687.81
2022-08-20T05:11:35.585Z,101683.47
2022-08-20T05:13:58.250Z,101680.09
2022-08-20T05:16:24.852Z,101678.31
2022-08-20T05:18:52.609Z,101678.34
2022-08-20T05:21:21.144Z,101691.28
2022-08-20T05:23:49.307Z,101685.16
2022-08-20T05:26:16.959Z,101671.41
2022-08-20T05:28:54.146Z,101682.50
2022-08-20T05:31:32.137Z,101698.09
2022-08-20T05:34:12.541Z,101688.50
2022-08-20T05:36:45.367Z,101694.50
2022-08-20T05:39:14.487Z,101653.94
2022-08-20T05:41:41.224Z,101697.06
2022-08-20T05:44:13.321Z,101705.69
2022-08-20T05:46:41.617Z,101690.19
2022-08-20T05:49:16.239Z,101710.78
2022-08-20T05:51:43.922Z,101721.09
2022-08-20T05:54:10.966Z,101715.84
2022-08-20T05:56:37.654Z,101723.50
2022-08-20T05:59:07.046Z,101722.50
2022-08-20T06:01:36.579Z,101731.13
2022-08-20T06:04:22.746Z,101726.69
2022-08-20T06:06:51.694Z,101725.59
2022-08-20T06:09:30.720Z,101732.44
2022-08-20T06:12:06.328Z,101720.13
2022-08-20T06:14:33.854Z,101721.69
2022-08-20T06:17:06.100Z,101727.63
2022-08-20T06:19:33.966Z,101716.13
2022-08-20T06:22:01.699Z,101701.19
2022-08-20T06:24:28.297Z,101722.44
2022-08-20T06:27:00.714Z,101727.28
2022-08-20T06:29:28.895Z,101728.50
2022-08-20T06:31:56.029Z,101729.72
2022-08-20T06:34:28.236Z,101704.25
2022-08-20T06:36:56.652Z,101721.16
2022-08-20T06:39:23.985Z,101722.56
2022-08-20T06:41:51.804Z,101724.81
2022-08-20T06:44:19.699Z,101726.38
2022-08-20T06:46:46.305Z,101734.69
2022-08-20T06:49:13.231Z,101722.38
2022-08-20T06:51:40.101Z,101734.19
2022-08-20T06:54:08.571Z,101714.78
2022-08-20T06:56:35.476Z,101721.06
2022-08-20T06:59:02.116Z,101716.16
2022-08-20T07:01:28.649Z,101718.00
2022-08-20T07:03:56.213Z,101721.69
2022-08-20T07:06:25.643Z,101726.28
2022-08-20T07:08:53.644Z,101718.97
2022-08-20T07:11:26.537Z,101719.63
2022-08-20T07:13:56.658Z,101724.03
2022-08-20T07:16:23.726Z,101733.41
2022-08-20T07:18:50.288Z,101731.63
2022-08-20T07:21:17.346Z,101722.88
2022-08-20T07:23:43.877Z,101721.97
2022-08-20T07:26:10.770Z,101723.63
2022-08-20T07:28:37.261Z,101730.38
2022-08-20T07:31:22.432Z,101720.50
2022-08-20T07:33:50.509Z,101707.28
2022-08-20T07:36:17.747Z,101709.53
2022-08-20T07:38:48.401Z,101704.84
2022-08-20T07:41:15.242Z,101726.66
2022-08-20T07:43:45.481Z,101710.59
2022-08-20T07:46:14.469Z,101724.81
2022-08-20T07:48:46.647Z,101717.47
2022-08-20T07:51:17.085Z,101735.75
2022-08-20T07:53:44.783Z,101745.50
2022-08-20T07:56:16.092Z,101728.22
2022-08-20T07:58:50.106Z,101731.94
2022-08-20T08:01:26.127Z,101738.06
2022-08-20T08:03:53.186Z,101718.22
2022-08-20T08:06:29.699Z,101707.81
2022-08-20T08:09:07.026Z,101721.50
2022-08-20T08:11:34.844Z,101727.38
2022-08-20T08:14:02.491Z,101730.94
2022-08-20T08:16:31.046Z,101711.38
2022-08-20T08:18:58.460Z,101725.47
2022-08-20T08:21:26.458Z,101732.41
2022-08-20T08:23:53.484Z,101726.22
2022-08-20T08:26:20.535Z,101709.09
2022-08-20T08:28:47.078Z,101718.44
2022-08-20T08:31:15.080Z,101726.25
2022-08-20T08:33:42.150Z,101724.19
2022-08-20T08:36:13.574Z,101717.41
2022-08-20T08:38:42.938Z,101719.94
2022-08-20T08:41:26.636Z,101719.19
2022-08-20T08:43:59.698Z,101703.28
2022-08-20T08:46:27.620Z,101711.38
2022-08-20T08:48:57.717Z,101705.56
2022-08-20T08:51:34.920Z,101713.06
2022-08-20T08:54:06.628Z,101718.69
2022-08-20T08:56:35.029Z,101713.06
2022-08-20T08:59:08.598Z,101703.84
2022-08-20T09:01:53.996Z,101709.31
2022-08-20T09:04:23.770Z,101710.25
2022-08-20T09:06:54.399Z,101706.22
2022-08-20T09:09:31.558Z,101707.72
2022-08-20T09:12:05.298Z,101709.41
2022-08-20T09:14:32.475Z,101715.41
2022-08-20T09:16:58.986Z,101705.31
2022-08-20T09:19:25.516Z,101713.97
2022-08-20T09:21:52.247Z,101697.84
2022-08-20T09:24:18.757Z,101701.00
2022-08-20T09:26:45.914Z,101689.53
2022-08-20T09:29:12.624Z,101703.75
2022-08-20T09:31:39.351Z,101716.53
2022-08-20T09:34:06.277Z,101713.94
2022-08-20T09:36:33.327Z,101718.66
2022-08-20T09:39:00.757Z,101704.84
2022-08-20T09:41:30.112Z,101701.34
2022-08-20T09:43:56.723Z,101701.22
2022-08-20T09:46:27.260Z,101693.84
2022-08-20T09:48:54.357Z,101710.53
2022-08-20T09:51:21.172Z,101706.16
2022-08-20T09:53:49.066Z,101708.31
2022-08-20T09:56:16.386Z,101706.59
2022-08-20T09:58:51.074Z,101678.25
2022-08-20T10:01:20.083Z,101696.44
2022-08-20T10:03:48.869Z,101694.00
2022-08-20T10:06:20.207Z,101695.56
2022-08-20T10:08:47.896Z,101681.09
2022-08-20T10:11:14.517Z,101676.28
2022-08-20T10:13:41.055Z,101659.78
2022-08-20T10:16:07.818Z,101673.97
2022-08-20T10:18:35.746Z,101653.53
2022-08-20T10:21:02.380Z,101677.66
2022-08-20T10:23:29.539Z,101667.47
2022-08-20T10:25:56.159Z,101666.81
2022-08-20T10:28:22.868Z,101676.72
2022-08-20T10:30:49.543Z,101675.09
2022-08-20T10:33:16.203Z,101631.38
2022-08-20T10:35:42.708Z,101646.97
2022-08-20T10:38:09.254Z,101653.28
2022-08-20T10:40:35.922Z,101664.13
2022-08-20T10:43:03.204Z,101656.47
2022-08-20T10:45:29.707Z,101644.63
2022-08-20T10:47:59.609Z,101658.78
2022-08-20T10:50:26.497Z,101664.94
2022-08-20T10:52:57.068Z,101651.34
2022-08-20T10:55:23.598Z,101649.75
2022-08-20T10:57:50.217Z,101643.50
2022-08-20T11:00:18.461Z,101644.94
2022-08-20T11:02:45.051Z,101646.94
2022-08-20T11:05:11.640Z,101651.19
2022-08-20T11:07:55.736Z,101650.63
2022-08-20T11:10:28.097Z,101653.75
2022-08-20T11:12:55.338Z,101652.94
2022-08-20T11:15:22.150Z,101639.97
2022-08-20T11:17:48.741Z,101647.19
2022-08-20T11:20:18.803Z,101632.06
2022-08-20T11:22:45.469Z,101630.03
2022-08-20T11:25:12.553Z,101600.09
2022-08-20T11:27:45.438Z,101637.00
2022-08-20T11:30:17.354Z,101621.34
2022-08-20T11:32:44.380Z,101627.13
2022-08-20T11:35:40.564Z,101630.19
2022-08-20T11:37:59.237Z,101636.75
2022-08-20T11:40:27.508Z,101626.84
2022-08-20T11:43:13.582Z,101618.47
2022-08-20T11:45:40.719Z,101635.22
2022-08-20T11:48:07.312Z,101639.66
2022-08-20T11:50:33.857Z,101607.06
2022-08-20T11:53:01.127Z,101626.63
2022-08-20T11:55:30.445Z,101626.63
2022-08-20T11:58:00.260Z,101651.47
2022-08-20T12:00:32.573Z,101642.72
2022-08-20T12:03:00.774Z,101627.44
2022-08-20T12:05:29.960Z,101643.56
2022-08-20T12:08:00.118Z,101625.81
2022-08-20T12:10:28.243Z,101640.03
2022-08-20T12:12:56.109Z,101647.66
2022-08-20T12:15:23.717Z,101628.28
2022-08-20T12:17:50.294Z,101624.47
2022-08-20T12:20:16.979Z,101614.84
2022-08-20T12:22:44.782Z,101639.63
2022-08-20T12:25:12.065Z,101640.19
2022-08-20T12:27:39.673Z,101631.91
2022-08-20T12:30:12.694Z,101621.47
2022-08-20T12:32:39.449Z,101644.13
2022-08-20T12:35:08.688Z,101638.31
2022-08-20T12:37:35.712Z,101643.13
2022-08-20T12:40:06.574Z,101637.00
2022-08-20T12:42:33.245Z,101624.91
2022-08-20T12:45:00.447Z,101642.19
2022-08-20T12:47:30.659Z,101646.69
2022-08-20T12:50:02.866Z,101641.56
2022-08-20T12:52:33.037Z,101611.06
2022-08-20T12:55:01.101Z,101637.94
2022-08-20T12:57:33.430Z,101631.94
2022-08-20T13:00:08.349Z,101634.06
2022-08-20T13:02:35.084Z,101596.72
2022-08-20T13:05:05.052Z,101614.81
2022-08-20T13:07:32.653Z,101604.16
2022-08-20T13:09:59.778Z,101620.53
2022-08-20T13:12:26.586Z,101602.47
2022-08-20T13:14:53.099Z,101601.91
2022-08-20T13:17:22.697Z,101616.78
2022-08-20T13:20:12.800Z,101619.97
2022-08-20T13:22:41.125Z,101586.66
2022-08-20T13:25:09.202Z,101584.72
2022-08-20T13:27:38.501Z,101602.53
2022-08-20T13:30:07.349Z,101609.28
2022-08-20T13:32:34.385Z,101594.72
2022-08-20T13:35:01.174Z,101557.19
2022-08-20T13:37:29.341Z,101600.47
2022-08-20T13:39:57.668Z,101591.72
2022-08-20T13:42:24.408Z,101594.41
2022-08-20T13:44:51.118Z,101583.47
2022-08-20T13:47:34.166Z,101581.75
2022-08-20T13:50:03.794Z,101582.50
2022-08-20T13:52:31.254Z,101569.19
2022-08-20T13:54:58.402Z,101569.06
2022-08-20T13:57:26.569Z,101572.88
2022-08-20T13:59:56.878Z,101556.97
2022-08-20T14:02:24.694Z,101568.63
2022-08-20T14:04:52.117Z,101560.13
2022-08-20T14:07:32.558Z,101552.84
2022-08-20T14:10:08.442Z,101554.44
2022-08-20T14:12:35.429Z,101534.22
2022-08-20T14:15:02.264Z,101540.66
2022-08-20T14:17:30.208Z,101550.34
2022-08-20T14:20:19.766Z,101547.59
2022-08-20T14:22:46.401Z,101508.88
2022-08-20T14:25:15.083Z,101523.38
2022-08-20T14:27:42.131Z,101543.09
2022-08-20T14:30:13.238Z,101541.38
2022-08-20T14:32:39.919Z,101531.81
2022-08-20T14:35:08.201Z,101533.38
2022-08-20T14:37:40.889Z,101530.66
2022-08-20T14:40:11.584Z,101530.94
2022-08-20T14:42:39.317Z,101503.38
2022-08-20T14:45:09.158Z,101524.00
2022-08-20T14:47:42.292Z,101491.63
2022-08-20T14:50:12.981Z,101512.59
2022-08-20T14:52:41.292Z,101512.56
2022-08-20T14:55:11.577Z,101504.69
2022-08-20T14:57:39.273Z,101510.75
2022-08-20T15:00:11.539Z,101489.94
2022-08-20T15:02:38.825Z,101517.72
2022-08-20T15:05:07.261Z,101508.22
2022-08-20T15:07:38.038Z,101497.34
2022-08-20T15:10:08.344Z,101496.78
2022-08-20T15:12:35.316Z,101500.31
2022-08-20T15:15:04.784Z,101485.72
2022-08-20T15:17:45.435Z,101472.00
2022-08-20T15:20:19.900Z,101495.88
2022-08-20T15:22:48.204Z,101484.63
2022-08-20T15:25:16.541Z,101489.13
2022-08-20T15:27:43.593Z,101487.69
2022-08-20T15:30:13.944Z,101490.03
2022-08-20T15:32:40.550Z,101478.53
2022-08-20T15:35:09.928Z,101476.75
2022-08-20T15:37:40.954Z,101464.22
2022-08-20T15:40:09.151Z,101437.66
2022-08-20T15:42:36.110Z,101473.88
2022-08-20T15:45:03.267Z,101465.97
2022-08-20T15:47:34.027Z,101475.19
2022-08-20T15:50:09.101Z,101476.22
2022-08-20T15:52:43.076Z,101472.84
2022-08-20T15:55:13.645Z,101464.41
2022-08-20T15:58:10.413Z,101473.72
2022-08-20T16:00:42.743Z,101478.72
2022-08-20T16:03:30.291Z,101475.00
2022-08-20T16:06:03.253Z,101467.44
2022-08-20T16:08:47.521Z,101459.00
2022-08-20T16:11:37.332Z,101470.59
2022-08-20T16:14:16.091Z,101479.34
2022-08-20T16:17:01.365Z,101486.66
2022-08-20T16:19:36.476Z,101474.78
2022-08-20T16:22:04.882Z,101449.94
2022-08-20T16:24:32.448Z,101459.28
2022-08-20T16:27:01.742Z,101478.06
2022-08-20T16:29:48.541Z,101460.22
2022-08-20T16:32:31.602Z,101462.91
2022-08-20T16:35:30.681Z,101472.72
2022-08-20T16:38:23.867Z,101474.56
2022-08-20T16:41:02.276Z,101471.94
2022-08-20T16:43:36.705Z,101479.06
2022-08-20T16:46:11.442Z,101473.91
2022-08-20T16:48:42.459Z,101458.03
2022-08-20T16:51:16.141Z,101471.81
2022-08-20T16:53:42.945Z,101454.31
2022-08-20T16:56:09.694Z,101468.34
2022-08-20T16:58:36.389Z,101441.69
2022-08-20T17:01:10.433Z,101450.75
2022-08-20T17:03:40.096Z,101455.19
2022-08-20T17:06:31.498Z,101480.13
2022-08-20T17:08:58.361Z,101469.19
2022-08-20T17:11:31.929Z,101473.16
2022-08-20T17:14:09.149Z,101476.84
2022-08-20T17:16:48.257Z,101477.50
2022-08-20T17:19:33.930Z,101484.19
2022-08-20T17:22:12.577Z,101477.94
2022-08-20T17:24:40.644Z,101486.09
2022-08-20T17:27:13.397Z,101488.25
2022-08-20T17:29:52.784Z,101482.28
2022-08-20T17:32:25.970Z,101482.09
2022-08-20T17:34:56.390Z,101484.66
2022-08-20T17:37:24.254Z,101481.69
2022-08-20T17:40:07.076Z,101488.06
2022-08-20T17:42:47.144Z,101490.16
2022-08-20T17:45:24.869Z,101479.69
2022-08-20T17:47:53.686Z,101484.03
2022-08-20T17:50:25.681Z,101484.53
2022-08-20T17:52:56.828Z,101465.72
2022-08-20T17:55:23.781Z,101470.78
2022-08-20T17:57:56.827Z,101487.34
2022-08-20T18:00:26.702Z,101454.84
2022-08-20T18:02:58.728Z,101492.31
2022-08-20T18:05:28.634Z,101477.56
2022-08-20T18:08:26.327Z,101493.50
2022-08-20T18:11:09.829Z,101488.66
2022-08-20T18:13:48.356Z,101495.69
2022-08-20T18:16:25.751Z,101476.59
2022-08-20T18:19:19.126Z,101502.09
2022-08-20T18:21:48.698Z,101500.88
2022-08-20T18:24:23.713Z,101484.91
2022-08-20T18:26:56.718Z,101490.41
2022-08-20T18:29:29.212Z,101499.78
2022-08-20T18:31:59.756Z,101475.53
2022-08-20T18:34:28.989Z,101500.00
2022-08-20T18:37:14.069Z,101489.31
2022-08-20T18:39:44.824Z,101476.00
2022-08-20T18:42:31.670Z,101472.25
2022-08-20T18:44:58.206Z,101498.28
2022-08-20T18:47:41.230Z,101472.97
2022-08-20T18:50:16.729Z,101491.47
2022-08-20T18:52:53.529Z,101494.78
2022-08-20T18:56:06.918Z,101496.84
2022-08-20T18:58:49.376Z,101491.31
2022-08-20T19:01:16.306Z,101475.53
2022-08-20T19:03:46.251Z,101495.78
2022-08-20T19:06:15.909Z,101503.03
2022-08-20T19:08:51.380Z,101511.25
2022-08-20T19:11:47.358Z,101509.16
2022-08-20T19:14:29.155Z,101513.25
2022-08-20T19:17:05.022Z,101524.25
2022-08-20T19:19:33.185Z,101524.41
2022-08-20T19:22:02.239Z,101523.09
2022-08-20T19:24:32.980Z,101514.84
2022-08-20T19:27:06.751Z,101530.75
2022-08-20T19:29:47.470Z,101530.38
2022-08-20T19:32:23.619Z,101541.16
2022-08-20T19:35:01.368Z,101533.53
2022-08-20T19:37:39.645Z,101536.47
2022-08-20T19:40:26.498Z,101526.66
2022-08-20T19:42:56.563Z,101519.34
2022-08-20T19:45:30.763Z,101524.03
2022-08-20T19:48:03.372Z,101535.22
2022-08-20T19:50:40.133Z,101547.81
2022-08-20T19:53:16.047Z,101549.81
2022-08-20T19:55:43.154Z,101537.97
2022-08-20T19:58:18.845Z,101541.56
2022-08-20T20:00:55.264Z,101543.50
2022-08-20T20:03:32.170Z,101541.06
2022-08-20T20:06:29.618Z,101541.28
2022-08-20T20:08:59.181Z,101546.00
2022-08-20T20:11:46.989Z,101544.69
2022-08-20T20:14:16.457Z,101531.97
2022-08-20T20:16:45.420Z,101548.69
2022-08-20T20:19:26.496Z,101541.97
2022-08-20T20:22:20.168Z,101539.84
2022-08-20T20:24:57.896Z,101542.41
2022-08-20T20:27:27.576Z,101542.13
2022-08-20T20:30:11.439Z,101534.53
2022-08-20T20:32:49.105Z,101548.53
2022-08-20T20:35:27.970Z,101543.47
2022-08-20T20:38:02.752Z,101541.19
2022-08-20T20:40:43.740Z,101542.13
2022-08-20T20:43:23.398Z,101540.53
2022-08-20T20:45:59.682Z,101534.56
2022-08-20T20:48:32.896Z,101536.50
2022-08-20T20:51:12.134Z,101519.44
2022-08-20T20:53:49.488Z,101537.91
2022-08-20T20:56:36.883Z,101539.84
2022-08-20T20:59:06.889Z,101537.34
2022-08-20T21:01:48.525Z,101511.75
2022-08-20T21:04:22.067Z,101537.09
2022-08-20T21:06:49.793Z,101500.34
2022-08-20T21:09:16.742Z,101523.75
2022-08-20T21:11:43.321Z,101539.47
2022-08-20T21:14:10.488Z,101543.88
2022-08-20T21:16:37.282Z,101527.81
2022-08-20T21:19:08.613Z,101552.09
2022-08-20T21:21:37.290Z,101521.22
2022-08-20T21:24:05.311Z,101526.50
2022-08-20T21:26:32.436Z,101545.50
2022-08-20T21:28:59.482Z,101544.75
2022-08-20T21:31:33.625Z,101545.88
2022-08-20T21:34:00.584Z,101522.66
2022-08-20T21:36:27.631Z,101518.41
2022-08-20T21:38:54.168Z,101515.16
2022-08-20T21:41:29.430Z,101522.22
2022-08-20T21:43:57.532Z,101506.00
2022-08-20T21:46:25.255Z,101511.25
2022-08-20T21:48:51.858Z,101513.97
2022-08-20T21:51:18.519Z,101490.97
2022-08-20T21:53:45.126Z,101482.41
2022-08-20T21:56:11.799Z,101497.16
2022-08-20T21:58:39.654Z,101500.63
2022-08-20T22:01:07.089Z,101521.31
2022-08-20T22:03:38.860Z,101531.09
2022-08-20T22:06:10.309Z,101506.22
2022-08-20T22:08:37.005Z,101488.00
2022-08-20T22:11:04.877Z,101515.75
2022-08-20T22:13:33.019Z,101522.88
2022-08-20T22:16:02.007Z,101522.22
2022-08-20T22:18:29.066Z,101519.69
2022-08-20T22:20:56.553Z,101508.75
2022-08-20T22:23:23.957Z,101508.91
2022-08-20T22:25:51.243Z,101531.44
2022-08-20T22:28:18.845Z,101510.84
2022-08-20T22:30:45.790Z,101526.53
2022-08-20T22:33:16.577Z,101505.16
2022-08-20T22:35:48.558Z,101524.13
2022-08-20T22:38:16.329Z,101518.50
2022-08-20T22:40:43.867Z,101515.88
2022-08-20T22:43:12.059Z,101516.91
2022-08-20T22:45:40.621Z,101492.09
2022-08-20T22:48:08.457Z,101528.13
2022-08-20T22:50:37.549Z,101498.84
2022-08-20T22:53:04.658Z,101520.66
2022-08-20T22:55:31.204Z,101510.34
2022-08-20T22:57:58.113Z,101483.09
2022-08-20T23:00:24.896Z,101524.44
2022-08-20T23:02:55.350Z,101525.41
2022-08-20T23:05:25.119Z,101510.94
2022-08-20T23:07:54.291Z,101531.72
2022-08-20T23:10:22.313Z,101511.19
2022-08-20T23:12:49.124Z,101498.31
2022-08-20T23:15:16.006Z,101515.72
2022-08-20T23:17:43.042Z,101525.16
2022-08-20T23:20:14.042Z,101528.81
2022-08-20T23:22:40.596Z,101532.47
2022-08-20T23:25:09.011Z,101511.13
2022-08-20T23:27:42.746Z,101519.16
2022-08-20T23:30:09.856Z,101528.56
2022-08-20T23:32:36.387Z,101514.09
2022-08-20T23:35:03.844Z,101542.63
2022-08-20T23:37:31.474Z,101531.47
2022-08-20T23:39:58.221Z,101516.13
2022-08-20T23:42:24.951Z,101530.78
2022-08-20T23:44:51.531Z,101535.13
2022-08-20T23:47:20.900Z,101523.94
2022-08-20T23:49:47.674Z,101514.59
2022-08-20T23:52:14.429Z,101509.53
2022-08-20T23:54:41.110Z,101500.84
2022-08-20T23:57:08.157Z,101497.47
2022-08-20T23:59:35.858Z,101510.53
